createdAt,value
2024-02-05T00:00:18.168Z,148827.53
2024-02-05T00:01:24.741Z,148743.64
2024-02-05T00:02:27.126Z,148767.78
2024-02-05T00:03:29.301Z,148860.59
2024-02-05T00:04:31.224Z,148835.17
2024-02-05T00:05:33.405Z,148781.75
2024-02-05T00:06:35.704Z,148864.41
2024-02-05T00:07:38.226Z,148898.75
2024-02-05T00:08:40.455Z,148939.44
2024-02-05T00:09:42.936Z,148863.14
2024-02-05T00:10:45.027Z,148865.70
2024-02-05T00:11:47.109Z,148916.53
2024-02-05T00:12:49.308Z,148898.75
2024-02-05T00:13:51.572Z,148952.16
2024-02-05T00:14:56.122Z,148939.44
2024-02-05T00:15:59.031Z,148943.25
2024-02-05T00:17:01.614Z,148905.13
2024-02-05T00:18:07.178Z,148837.73
2024-02-05T00:19:09.246Z,148893.69
2024-02-05T00:20:13.525Z,148914.02
2024-02-05T00:21:15.523Z,148901.31
2024-02-05T00:22:17.536Z,148869.52
2024-02-05T00:23:24.285Z,148950.89
2024-02-05T00:24:26.229Z,148861.89
2024-02-05T00:25:29.949Z,148935.63
2024-02-05T00:26:32.001Z,148875.84
2024-02-05T00:27:35.478Z,148935.63
2024-02-05T00:28:37.716Z,148972.53
2024-02-05T00:29:41.112Z,148961.09
2024-02-05T00:30:45.355Z,148953.45
2024-02-05T00:31:52.414Z,148947.08
2024-02-05T00:32:54.480Z,148990.33
2024-02-05T00:33:57.928Z,148934.36
2024-02-05T00:35:00.303Z,148884.75
2024-02-05T00:36:05.057Z,148884.75
2024-02-05T00:37:10.479Z,148957.27
2024-02-05T00:38:14.732Z,148955.97
2024-02-05T00:39:17.124Z,148944.52
2024-02-05T00:40:19.803Z,148995.41
2024-02-05T00:41:22.434Z,148976.31
2024-02-05T00:42:26.353Z,148911.47
2024-02-05T00:43:30.227Z,148971.23
2024-02-05T00:44:32.818Z,148911.47
2024-02-05T00:45:38.070Z,148995.41
2024-02-05T00:46:41.668Z,148911.47
2024-02-05T00:47:45.464Z,148954.70
2024-02-05T00:48:48.300Z,148935.63
2024-02-05T00:49:50.475Z,148914.02
2024-02-05T00:50:53.893Z,149022.12
2024-02-05T00:51:55.917Z,149089.56
2024-02-05T00:52:57.997Z,148975.06
2024-02-05T00:54:00.247Z,148888.56
2024-02-05T00:55:06.122Z,148878.41
2024-02-05T00:56:10.541Z,148982.69
2024-02-05T00:57:12.618Z,148891.13
2024-02-05T00:58:15.420Z,148889.86
2024-02-05T00:59:18.323Z,148892.38
2024-02-05T01:00:21.839Z,148938.19
2024-02-05T01:01:26.589Z,148933.11
2024-02-05T01:02:30.862Z,148865.70
2024-02-05T01:03:33.218Z,148814.84
2024-02-05T01:04:37.222Z,148858.06
2024-02-05T01:05:39.989Z,148898.75
2024-02-05T01:06:42.578Z,148891.13
2024-02-05T01:07:44.768Z,148936.92
2024-02-05T01:08:46.780Z,148987.77
2024-02-05T01:09:48.838Z,148992.89
2024-02-05T01:10:53.113Z,148813.53
2024-02-05T01:11:56.474Z,148908.91
2024-02-05T01:12:58.470Z,148835.17
2024-02-05T01:14:02.199Z,148872.03
2024-02-05T01:15:06.036Z,148872.03
2024-02-05T01:16:08.422Z,148977.61
2024-02-05T01:17:11.620Z,148805.95
2024-02-05T01:18:15.499Z,148874.59
2024-02-05T01:19:17.762Z,148914.02
2024-02-05T01:20:19.853Z,148888.56
2024-02-05T01:21:23.883Z,148860.59
2024-02-05T01:22:27.880Z,148854.25
2024-02-05T01:23:31.066Z,148832.61
2024-02-05T01:24:33.050Z,148819.91
2024-02-05T01:25:36.449Z,148911.47
2024-02-05T01:26:38.590Z,148828.80
2024-02-05T01:27:40.542Z,148925.47
2024-02-05T01:28:42.634Z,148865.70
2024-02-05T01:29:45.522Z,148894.94
2024-02-05T01:30:47.816Z,148914.02
2024-02-05T01:31:52.077Z,148936.92
2024-02-05T01:32:54.563Z,148911.47
2024-02-05T01:33:56.696Z,148852.95
2024-02-05T01:34:58.822Z,148849.14
2024-02-05T01:36:02.322Z,148816.09
2024-02-05T01:37:06.284Z,148914.02
2024-02-05T01:38:11.372Z,148945.81
2024-02-05T01:39:13.460Z,148936.92
2024-02-05T01:40:15.731Z,148840.25
2024-02-05T01:41:18.415Z,148925.47
2024-02-05T01:42:20.445Z,148892.38
2024-02-05T01:43:22.903Z,148919.09
2024-02-05T01:44:24.882Z,148873.34
2024-02-05T01:45:31.063Z,148888.56
2024-02-05T01:46:36.189Z,148945.81
2024-02-05T01:47:39.839Z,148944.52
2024-02-05T01:48:44.916Z,148959.78
2024-02-05T01:49:49.461Z,149006.86
2024-02-05T01:50:54.602Z,148947.08
2024-02-05T01:52:00.389Z,148972.53
2024-02-05T01:53:05.446Z,149015.75
2024-02-05T01:54:12.420Z,149017.06
2024-02-05T01:55:16.977Z,148971.23
2024-02-05T01:56:25.969Z,149020.88
2024-02-05T01:57:28.210Z,149053.94
2024-02-05T01:58:31.743Z,149010.67
2024-02-05T01:59:33.857Z,149115.03
2024-02-05T02:00:40.113Z,149025.94
2024-02-05T02:01:44.197Z,149005.59
2024-02-05T02:02:46.797Z,149001.78
2024-02-05T02:03:51.537Z,148963.59
2024-02-05T02:05:01.383Z,149018.31
2024-02-05T02:06:06.714Z,149025.94
2024-02-05T02:07:09.802Z,149117.61
2024-02-05T02:08:14.647Z,149108.66
2024-02-05T02:09:18.720Z,149085.75
2024-02-05T02:10:22.535Z,149029.77
2024-02-05T02:11:27.164Z,149017.06
2024-02-05T02:12:29.140Z,149042.47
2024-02-05T02:13:32.730Z,149028.50
2024-02-05T02:14:34.740Z,149109.92
2024-02-05T02:15:36.677Z,149165.97
2024-02-05T02:16:41.136Z,149192.70
2024-02-05T02:17:47.496Z,149136.70
2024-02-05T02:18:51.753Z,149190.14
2024-02-05T02:19:56.396Z,149103.58
2024-02-05T02:20:59.575Z,149087.00
2024-02-05T02:22:13.482Z,149144.34
2024-02-05T02:23:30.097Z,149144.34
2024-02-05T02:24:34.818Z,149106.09
2024-02-05T02:25:40.326Z,149074.28
2024-02-05T02:26:42.491Z,149109.92
2024-02-05T02:27:45.827Z,149081.92
2024-02-05T02:28:47.817Z,149115.03
2024-02-05T02:29:51.763Z,149107.36
2024-02-05T02:30:54.935Z,149107.36
2024-02-05T02:32:14.175Z,149107.36
2024-02-05T02:33:32.564Z,149143.03
2024-02-05T02:34:38.405Z,149120.17
2024-02-05T02:36:04.527Z,149155.81
2024-02-05T02:37:10.934Z,149202.86
2024-02-05T02:38:19.738Z,149196.52
2024-02-05T02:39:28.630Z,149227.09
2024-02-05T02:40:33.466Z,149154.50
2024-02-05T02:41:38.876Z,149104.84
2024-02-05T02:42:45.410Z,149098.45
2024-02-05T02:43:58.390Z,149214.31
2024-02-05T02:45:02.365Z,149239.81
2024-02-05T02:46:06.445Z,149214.31
2024-02-05T02:47:10.041Z,149085.75
2024-02-05T02:48:12.087Z,149158.31
2024-02-05T02:49:14.238Z,149104.84
2024-02-05T02:50:17.453Z,149112.47
2024-02-05T02:51:21.644Z,149164.70
2024-02-05T02:52:23.769Z,149125.25
2024-02-05T02:53:27.109Z,149125.25
2024-02-05T02:54:31.271Z,149199.08
2024-02-05T02:55:35.093Z,149093.38
2024-02-05T02:56:38.492Z,149171.03
2024-02-05T02:57:41.449Z,149171.03
2024-02-05T02:58:43.503Z,149188.88
2024-02-05T02:59:45.390Z,149039.92
2024-02-05T03:00:49.533Z,149163.44
2024-02-05T03:01:52.031Z,149155.81
2024-02-05T03:02:55.291Z,149155.81
2024-02-05T03:03:57.273Z,149160.88
2024-02-05T03:04:59.361Z,149191.44
2024-02-05T03:06:01.574Z,149173.59
2024-02-05T03:08:09.936Z,149216.87
2024-02-05T03:09:12.516Z,149183.80
2024-02-05T03:10:15.697Z,149056.50
2024-02-05T03:11:18.472Z,149150.69
2024-02-05T03:12:20.516Z,149104.84
2024-02-05T03:13:22.437Z,149118.86
2024-02-05T03:14:24.525Z,149151.98
2024-02-05T03:15:27.657Z,149066.66
2024-02-05T03:16:29.790Z,149094.64
2024-02-05T03:17:31.705Z,149037.41
2024-02-05T03:18:33.737Z,149057.75
2024-02-05T03:19:36.014Z,149059.02
2024-02-05T03:20:41.158Z,149011.94
2024-02-05T03:21:43.717Z,148869.52
2024-02-05T03:22:56.097Z,148962.34
2024-02-05T03:23:49.633Z,148961.09
2024-02-05T03:24:51.798Z,148968.72
2024-02-05T03:25:53.853Z,149005.59
2024-02-05T03:26:57.042Z,148936.92
2024-02-05T03:28:02.105Z,148936.92
2024-02-05T03:29:04.131Z,148977.61
2024-02-05T03:30:10.098Z,148961.09
2024-02-05T03:31:12.423Z,148983.94
2024-02-05T03:32:14.489Z,148964.91
2024-02-05T03:33:18.595Z,149038.66
2024-02-05T03:34:22.961Z,148958.53
2024-02-05T03:35:27.258Z,148987.77
2024-02-05T03:36:29.391Z,148901.31
2024-02-05T03:37:31.287Z,148901.31
2024-02-05T03:38:33.634Z,148873.34
2024-02-05T03:39:37.165Z,148949.63
2024-02-05T03:40:39.311Z,148931.81
2024-02-05T03:41:41.350Z,148891.13
2024-02-05T03:42:43.495Z,148906.39
2024-02-05T03:43:49.167Z,148891.13
2024-02-05T03:44:51.095Z,148933.11
2024-02-05T03:45:53.175Z,148954.70
2024-02-05T03:46:55.390Z,148924.17
2024-02-05T03:47:57.322Z,148950.89
2024-02-05T03:48:59.900Z,148849.14
2024-02-05T03:50:03.259Z,148893.69
2024-02-05T03:51:05.469Z,148817.34
2024-02-05T03:52:07.432Z,148877.11
2024-02-05T03:53:10.257Z,148870.78
2024-02-05T03:54:13.120Z,148903.83
2024-02-05T03:55:17.119Z,148868.22
2024-02-05T03:56:19.668Z,148877.11
2024-02-05T03:57:22.393Z,148860.59
2024-02-05T03:58:24.523Z,148912.72
2024-02-05T03:59:27.429Z,148892.38
2024-02-05T04:00:31.174Z,148924.17
2024-02-05T04:01:35.839Z,148906.39
2024-02-05T04:02:41.192Z,148892.38
2024-02-05T04:03:43.360Z,148922.91
2024-02-05T04:04:45.455Z,148958.53
2024-02-05T04:05:47.527Z,148896.19
2024-02-05T04:06:49.729Z,148919.09
2024-02-05T04:07:51.818Z,148888.56
2024-02-05T04:08:54.883Z,148845.31
2024-02-05T04:09:57.124Z,148799.58
2024-02-05T04:11:00.691Z,148774.16
2024-02-05T04:12:05.964Z,148817.34
2024-02-05T04:13:08.105Z,148797.02
2024-02-05T04:14:10.130Z,148675.03
2024-02-05T04:15:13.013Z,148722.00
2024-02-05T04:16:15.337Z,148739.83
2024-02-05T04:17:17.792Z,148718.19
2024-02-05T04:18:21.222Z,148769.05
2024-02-05T04:19:23.341Z,148804.64
2024-02-05T04:20:25.471Z,148779.23
2024-02-05T04:21:28.932Z,148794.50
2024-02-05T04:22:31.618Z,148814.84
2024-02-05T04:23:33.528Z,148812.28
2024-02-05T04:24:35.425Z,148824.98
2024-02-05T04:25:38.143Z,148794.50
2024-02-05T04:26:40.329Z,148817.34
2024-02-05T04:27:42.257Z,148743.64
2024-02-05T04:28:44.224Z,148819.91
2024-02-05T04:29:49.068Z,148790.69
2024-02-05T04:30:51.667Z,148824.98
2024-02-05T04:31:54.699Z,148763.97
2024-02-05T04:32:57.123Z,148730.94
2024-02-05T04:34:02.399Z,148690.23
2024-02-05T04:35:05.793Z,148669.91
2024-02-05T04:36:11.516Z,148694.05
2024-02-05T04:37:13.529Z,148636.89
2024-02-05T04:38:15.687Z,148720.75
2024-02-05T04:39:17.599Z,148753.78
2024-02-05T04:40:21.709Z,148785.56
2024-02-05T04:41:24.092Z,148800.83
2024-02-05T04:42:27.282Z,148755.09
2024-02-05T04:43:29.960Z,148711.88
2024-02-05T04:44:31.869Z,148741.08
2024-02-05T04:45:34.914Z,148772.86
2024-02-05T04:46:36.954Z,148751.28
2024-02-05T04:47:39.052Z,148807.20
2024-02-05T04:48:41.624Z,148711.88
2024-02-05T04:49:44.700Z,148702.98
2024-02-05T04:50:47.020Z,148747.45
2024-02-05T04:51:49.540Z,148789.38
2024-02-05T04:52:52.708Z,148758.91
2024-02-05T04:53:58.457Z,148798.31
2024-02-05T04:55:00.671Z,148704.25
2024-02-05T04:56:03.402Z,148776.69
2024-02-05T04:57:06.853Z,148755.09
2024-02-05T04:58:09.818Z,148772.86
2024-02-05T04:59:13.140Z,148802.12
2024-02-05T05:00:18.174Z,148837.73
2024-02-05T05:01:20.416Z,148835.17
2024-02-05T05:02:22.447Z,148824.98
2024-02-05T05:03:24.499Z,148835.17
2024-02-05T05:04:27.411Z,148687.72
2024-02-05T05:05:31.374Z,148664.84
2024-02-05T05:06:33.798Z,148780.50
2024-02-05T05:07:37.946Z,148723.31
2024-02-05T05:08:40.135Z,148793.20
2024-02-05T05:09:42.067Z,148715.69
2024-02-05T05:10:44.503Z,148776.69
2024-02-05T05:11:46.771Z,148816.09
2024-02-05T05:12:52.403Z,148819.91
2024-02-05T05:13:54.430Z,148832.61
2024-02-05T05:14:56.455Z,148784.31
2024-02-05T05:16:02.376Z,148783.06
2024-02-05T05:17:04.689Z,148809.77
2024-02-05T05:18:07.104Z,148809.77
2024-02-05T05:19:09.331Z,148850.44
2024-02-05T05:20:13.063Z,148852.95
2024-02-05T05:21:15.215Z,148852.95
2024-02-05T05:22:17.235Z,148842.81
2024-02-05T05:23:19.310Z,148845.31
2024-02-05T05:24:21.242Z,148835.17
2024-02-05T05:25:25.428Z,148795.75
2024-02-05T05:26:27.839Z,148795.75
2024-02-05T05:27:29.830Z,148784.31
2024-02-05T05:28:31.880Z,148855.52
2024-02-05T05:29:33.957Z,148875.84
2024-02-05T05:30:38.256Z,148892.38
2024-02-05T05:31:40.353Z,148855.52
2024-02-05T05:32:42.481Z,148870.78
2024-02-05T05:33:45.832Z,148858.06
2024-02-05T05:34:48.031Z,148783.06
2024-02-05T05:35:50.712Z,148855.52
2024-02-05T05:36:53.165Z,148753.78
2024-02-05T05:37:55.378Z,148873.34
2024-02-05T05:38:57.470Z,148755.09
2024-02-05T05:39:59.568Z,148785.56
2024-02-05T05:41:02.587Z,148819.91
2024-02-05T05:42:04.897Z,148752.53
2024-02-05T05:43:08.188Z,148786.88
2024-02-05T05:44:10.291Z,148771.61
2024-02-05T05:45:12.212Z,148739.83
2024-02-05T05:46:15.268Z,148744.91
2024-02-05T05:47:17.584Z,148763.97
2024-02-05T05:48:21.593Z,148819.91
2024-02-05T05:49:23.784Z,148694.05
2024-02-05T05:50:26.147Z,148732.20
2024-02-05T05:51:28.268Z,148784.31
2024-02-05T05:52:30.752Z,148774.16
2024-02-05T05:53:32.823Z,148800.83
2024-02-05T05:54:35.676Z,148812.28
2024-02-05T05:55:40.308Z,148654.66
2024-02-05T05:56:43.451Z,148736.02
2024-02-05T05:57:45.796Z,148635.62
2024-02-05T05:58:48.453Z,148692.80
2024-02-05T05:59:50.367Z,148725.83
2024-02-05T06:00:52.814Z,148799.58
2024-02-05T06:01:55.876Z,148790.69
2024-02-05T06:02:58.443Z,148850.44
2024-02-05T06:04:00.405Z,148827.53
2024-02-05T06:05:02.518Z,148753.78
2024-02-05T06:06:05.288Z,148746.16
2024-02-05T06:07:08.877Z,148800.83
2024-02-05T06:08:11.154Z,148690.23
2024-02-05T06:09:13.564Z,148738.58
2024-02-05T06:10:15.981Z,148738.58
2024-02-05T06:11:18.086Z,148785.56
2024-02-05T06:12:20.653Z,148835.17
2024-02-05T06:13:22.679Z,148816.09
2024-02-05T06:14:24.841Z,148724.56
2024-02-05T06:15:27.496Z,148809.77
2024-02-05T06:16:29.811Z,148840.25
2024-02-05T06:17:32.101Z,148842.81
2024-02-05T06:18:34.134Z,148870.78
2024-02-05T06:19:36.452Z,148780.50
2024-02-05T06:20:39.816Z,148849.14
2024-02-05T06:21:42.011Z,148827.53
2024-02-05T06:22:44.806Z,148746.16
2024-02-05T06:23:46.895Z,148845.31
2024-02-05T06:24:49.859Z,148794.50
2024-02-05T06:25:52.602Z,148858.06
2024-02-05T06:26:54.599Z,148784.31
2024-02-05T06:27:57.586Z,148849.14
2024-02-05T06:28:59.609Z,148892.38
2024-02-05T06:30:03.026Z,148784.31
2024-02-05T06:31:05.547Z,148852.95
2024-02-05T06:32:07.503Z,148761.42
2024-02-05T06:33:09.517Z,148824.98
2024-02-05T06:34:11.766Z,148814.84
2024-02-05T06:35:14.141Z,148845.31
2024-02-05T06:36:16.326Z,148870.78
2024-02-05T06:37:19.433Z,148863.14
2024-02-05T06:38:21.518Z,148845.31
2024-02-05T06:39:23.564Z,148831.36
2024-02-05T06:40:26.068Z,148870.78
2024-02-05T06:41:28.372Z,148748.72
2024-02-05T06:42:30.292Z,148794.50
2024-02-05T06:43:38.276Z,148846.62
2024-02-05T06:44:41.568Z,148903.83
2024-02-05T06:45:44.032Z,148800.83
2024-02-05T06:46:48.323Z,148856.77
2024-02-05T06:47:52.185Z,148832.61
2024-02-05T06:48:54.533Z,148826.28
2024-02-05T06:49:57.017Z,148844.06
2024-02-05T06:50:59.344Z,148897.50
2024-02-05T06:52:02.416Z,148905.13
2024-02-05T06:53:05.608Z,148903.83
2024-02-05T06:54:07.726Z,148878.41
2024-02-05T06:55:10.808Z,148888.56
2024-02-05T06:56:13.157Z,148858.06
2024-02-05T06:57:15.186Z,148868.22
2024-02-05T06:58:17.123Z,148847.88
2024-02-05T06:59:19.078Z,148849.14
2024-02-05T07:00:21.999Z,148842.81
2024-02-05T07:01:24.065Z,148840.25
2024-02-05T07:02:26.046Z,148850.44
2024-02-05T07:03:29.134Z,148887.30
2024-02-05T07:04:31.341Z,148903.83
2024-02-05T07:05:34.684Z,148947.08
2024-02-05T07:06:39.476Z,148910.20
2024-02-05T07:07:41.678Z,148868.22
2024-02-05T07:08:44.491Z,148893.69
2024-02-05T07:09:46.752Z,148802.12
2024-02-05T07:10:48.982Z,148803.39
2024-02-05T07:11:50.857Z,148849.14
2024-02-05T07:12:52.786Z,148866.97
2024-02-05T07:13:54.876Z,148886.05
2024-02-05T07:14:59.810Z,148797.02
2024-02-05T07:16:01.899Z,148774.16
2024-02-05T07:17:04.881Z,148791.94
2024-02-05T07:18:07.351Z,148786.88
2024-02-05T07:19:12.777Z,148814.84
2024-02-05T07:20:17.907Z,148851.69
2024-02-05T07:21:19.897Z,148830.09
2024-02-05T07:22:21.821Z,148861.89
2024-02-05T07:23:23.989Z,148832.61
2024-02-05T07:24:26.789Z,148756.34
2024-02-05T07:25:29.296Z,148738.58
2024-02-05T07:26:34.153Z,148779.23
2024-02-05T07:27:36.107Z,148786.88
2024-02-05T07:28:38.191Z,148763.97
2024-02-05T07:29:40.247Z,148791.94
2024-02-05T07:30:42.260Z,148699.17
2024-02-05T07:31:44.480Z,148781.75
2024-02-05T07:32:48.508Z,148819.91
2024-02-05T07:33:50.906Z,148772.86
2024-02-05T07:34:53.158Z,148793.20
2024-02-05T07:35:55.264Z,148772.86
2024-02-05T07:36:57.386Z,148776.69
2024-02-05T07:37:59.882Z,148837.73
2024-02-05T07:39:02.418Z,148861.89
2024-02-05T07:40:07.570Z,148817.34
2024-02-05T07:41:11.424Z,148779.23
2024-02-05T07:42:14.425Z,148814.84
2024-02-05T07:43:16.746Z,148687.72
2024-02-05T07:44:20.450Z,148708.06
2024-02-05T07:45:24.424Z,148719.50
2024-02-05T07:46:26.560Z,148715.69
2024-02-05T07:47:29.127Z,148771.61
2024-02-05T07:48:31.431Z,148676.28
2024-02-05T07:49:34.265Z,148713.13
2024-02-05T07:50:36.612Z,148741.08
2024-02-05T07:51:44.299Z,148756.34
2024-02-05T07:52:47.999Z,148758.91
2024-02-05T07:53:49.968Z,148733.45
2024-02-05T07:54:52.251Z,148688.98
2024-02-05T07:55:57.208Z,148761.42
2024-02-05T07:56:59.502Z,148677.53
2024-02-05T07:58:01.519Z,148558.11
2024-02-05T08:00:16.256Z,148507.28
2024-02-05T08:01:19.434Z,148512.41
2024-02-05T08:02:21.448Z,148497.16
2024-02-05T08:03:23.784Z,148606.38
2024-02-05T08:04:26.162Z,148561.92
2024-02-05T08:05:30.219Z,148480.66
2024-02-05T08:06:33.337Z,148527.61
2024-02-05T08:07:35.601Z,148456.47
2024-02-05T08:08:37.747Z,148481.91
2024-02-05T08:09:39.908Z,148490.78
2024-02-05T08:10:43.031Z,148502.22
2024-02-05T08:11:47.606Z,148544.16
2024-02-05T08:12:50.402Z,148443.80
2024-02-05T08:13:55.684Z,148518.72
2024-02-05T08:14:58.687Z,148424.73
2024-02-05T08:16:02.092Z,148443.80
2024-02-05T08:17:08.352Z,148532.72
2024-02-05T08:18:08.966Z,148438.72
2024-02-05T08:19:11.484Z,148357.44
2024-02-05T08:20:15.688Z,148370.17
2024-02-05T08:21:20.198Z,148403.17
2024-02-05T08:22:25.587Z,148424.73
2024-02-05T08:23:27.680Z,148405.72
2024-02-05T08:24:29.716Z,148385.42
2024-02-05T08:25:32.439Z,148342.25
2024-02-05T08:26:37.569Z,148365.06
2024-02-05T08:27:39.741Z,148405.72
2024-02-05T08:28:41.804Z,148420.92
2024-02-05T08:29:44.885Z,148456.47
2024-02-05T08:30:47.808Z,148513.66
2024-02-05T08:31:50.083Z,148504.78
2024-02-05T08:32:56.517Z,148523.80
2024-02-05T08:34:02.625Z,148494.59
2024-02-05T08:35:09.371Z,148395.55
2024-02-05T08:36:11.576Z,148403.17
2024-02-05T08:37:13.689Z,148533.97
2024-02-05T08:38:15.972Z,148460.28
2024-02-05T08:39:18.008Z,148415.86
2024-02-05T08:40:23.253Z,148503.47
2024-02-05T08:41:25.318Z,148521.28
2024-02-05T08:42:32.649Z,148448.91
2024-02-05T08:43:31.267Z,148424.73
2024-02-05T08:44:33.663Z,148565.73
2024-02-05T08:45:35.680Z,148422.22
2024-02-05T08:46:39.153Z,148475.53
2024-02-05T08:47:42.321Z,148385.42
2024-02-05T08:48:44.891Z,148451.41
2024-02-05T08:49:49.392Z,148441.28
2024-02-05T08:50:52.724Z,148532.72
2024-02-05T08:51:54.792Z,148409.53
2024-02-05T08:52:58.756Z,148436.17
2024-02-05T08:54:02.050Z,148457.78
2024-02-05T08:55:05.929Z,148514.91
2024-02-05T08:56:08.327Z,148512.41
2024-02-05T08:57:11.544Z,148569.55
2024-02-05T08:58:14.966Z,148592.42
2024-02-05T08:59:19.472Z,148560.67
2024-02-05T09:00:23.724Z,148470.47
2024-02-05T09:01:27.690Z,148432.36
2024-02-05T09:02:30.498Z,148475.53
2024-02-05T09:03:33.016Z,148578.42
2024-02-05T09:04:35.905Z,148550.48
2024-02-05T09:05:44.034Z,148625.44
2024-02-05T09:06:42.964Z,148675.03
2024-02-05T09:07:45.450Z,148583.50
2024-02-05T09:08:47.745Z,148469.22
2024-02-05T09:09:49.667Z,148479.34
2024-02-05T09:10:53.173Z,148512.41
2024-02-05T09:12:05.102Z,148551.73
2024-02-05T09:13:00.876Z,148598.75
2024-02-05T09:14:02.845Z,148636.89
2024-02-05T09:15:08.167Z,148587.31
2024-02-05T09:16:10.896Z,148636.89
2024-02-05T09:17:15.080Z,148570.80
2024-02-05T09:18:17.078Z,148675.03
2024-02-05T09:19:19.788Z,148724.56
2024-02-05T09:20:24.235Z,148672.47
2024-02-05T09:21:26.153Z,148550.48
2024-02-05T09:22:28.525Z,148620.38
2024-02-05T09:23:30.935Z,148606.38
2024-02-05T09:24:32.906Z,148598.75
2024-02-05T09:25:35.802Z,148681.36
2024-02-05T09:26:40.024Z,148605.12
2024-02-05T09:27:43.180Z,148586.06
2024-02-05T09:28:45.237Z,148633.08
2024-02-05T09:29:49.765Z,148691.55
2024-02-05T09:31:01.999Z,148741.08
2024-02-05T09:31:58.123Z,148681.36
2024-02-05T09:33:00.235Z,148681.36
2024-02-05T09:34:02.399Z,148606.38
2024-02-05T09:35:05.885Z,148617.81
2024-02-05T09:36:10.577Z,148570.80
2024-02-05T09:37:12.709Z,148650.84
2024-02-05T09:38:14.763Z,148655.95
2024-02-05T09:39:18.892Z,148622.89
2024-02-05T09:40:21.300Z,148667.41
2024-02-05T09:41:27.061Z,148586.06
2024-02-05T09:42:30.337Z,148556.86
2024-02-05T09:43:33.363Z,148556.86
2024-02-05T09:44:38.066Z,148671.22
2024-02-05T09:45:45.217Z,148657.22
2024-02-05T09:46:50.604Z,148652.14
2024-02-05T09:47:55.891Z,148530.16
2024-02-05T09:49:01.146Z,148640.70
2024-02-05T09:50:06.673Z,148738.58
2024-02-05T09:51:12.263Z,148741.08
2024-02-05T09:52:15.850Z,148641.95
2024-02-05T09:53:17.899Z,148601.31
2024-02-05T09:54:24.260Z,148682.61
2024-02-05T09:55:29.287Z,148722.00
2024-02-05T09:56:36.044Z,148654.66
2024-02-05T09:57:41.274Z,148751.28
2024-02-05T09:58:43.636Z,148722.00
2024-02-05T09:59:46.442Z,148662.28
2024-02-05T10:00:49.657Z,148749.97
2024-02-05T10:01:54.991Z,148678.84
2024-02-05T10:02:59.455Z,148658.47
2024-02-05T10:04:02.686Z,148762.72
2024-02-05T10:05:10.070Z,148797.02
2024-02-05T10:06:16.284Z,148779.23
2024-02-05T10:07:20.438Z,148789.38
2024-02-05T10:08:26.420Z,148786.88
2024-02-05T10:09:31.262Z,148802.12
2024-02-05T10:10:36.140Z,148715.69
2024-02-05T10:11:45.132Z,148786.88
2024-02-05T10:12:51.948Z,148812.28
2024-02-05T10:13:56.953Z,148732.20
2024-02-05T10:15:02.657Z,148725.83
2024-02-05T10:16:10.012Z,148748.72
2024-02-05T10:17:15.769Z,148664.84
2024-02-05T10:18:19.005Z,148667.41
2024-02-05T10:19:24.159Z,148700.42
2024-02-05T10:20:33.957Z,148700.42
2024-02-05T10:21:38.355Z,148720.75
2024-02-05T10:22:49.751Z,148682.61
2024-02-05T10:23:55.280Z,148648.33
2024-02-05T10:24:59.601Z,148708.06
2024-02-05T10:26:03.560Z,148688.98
2024-02-05T10:27:05.717Z,148719.50
2024-02-05T10:28:09.117Z,148719.50
2024-02-05T10:29:11.687Z,148732.20
2024-02-05T10:30:19.506Z,148720.75
2024-02-05T10:31:22.014Z,148596.23
2024-02-05T10:32:24.203Z,148596.23
2024-02-05T10:33:26.755Z,148667.41
2024-02-05T10:34:31.203Z,148751.28
2024-02-05T10:35:36.989Z,148802.12
2024-02-05T10:36:41.300Z,148852.95
2024-02-05T10:37:44.670Z,148659.77
2024-02-05T10:38:46.754Z,148709.31
2024-02-05T10:39:50.303Z,148710.61
2024-02-05T10:40:52.566Z,148724.56
2024-02-05T10:41:54.914Z,148743.64
2024-02-05T10:42:58.813Z,148762.72
2024-02-05T10:44:02.114Z,148708.06
2024-02-05T10:45:06.111Z,148734.77
2024-02-05T10:46:08.535Z,148744.91
2024-02-05T10:47:12.048Z,148758.91
2024-02-05T10:48:15.248Z,148798.31
2024-02-05T10:49:19.502Z,148729.64
2024-02-05T10:50:23.867Z,148790.69
2024-02-05T10:51:26.923Z,148725.83
2024-02-05T10:52:31.572Z,148781.75
2024-02-05T10:53:38.024Z,148868.22
2024-02-05T10:54:42.833Z,148840.25
2024-02-05T10:55:45.664Z,148719.50
2024-02-05T10:56:50.833Z,148819.91
2024-02-05T10:57:56.084Z,148866.97
2024-02-05T10:59:01.009Z,148892.38
2024-02-05T11:00:03.945Z,148873.34
2024-02-05T11:01:08.360Z,148845.31
2024-02-05T11:02:32.593Z,148808.47
2024-02-05T11:03:36.873Z,148736.02
2024-02-05T11:04:42.407Z,148728.38
2024-02-05T11:05:48.302Z,148802.12
2024-02-05T11:06:54.647Z,148692.80
2024-02-05T11:08:00.485Z,148777.98
2024-02-05T11:09:07.365Z,148777.98
2024-02-05T11:10:12.033Z,148705.50
2024-02-05T11:11:15.815Z,148739.83
2024-02-05T11:12:23.320Z,148677.53
2024-02-05T11:14:42.634Z,148794.50
2024-02-05T11:15:47.662Z,148729.64
2024-02-05T11:16:50.534Z,148835.17
2024-02-05T11:17:54.626Z,148865.70
2024-02-05T11:19:01.317Z,148755.09
2024-02-05T11:20:10.957Z,148823.72
2024-02-05T11:21:17.893Z,148776.69
2024-02-05T11:22:23.553Z,148756.34
2024-02-05T11:23:30.529Z,148766.53
2024-02-05T11:24:34.733Z,148723.31
2024-02-05T11:25:37.264Z,148828.80
2024-02-05T11:26:40.860Z,148826.28
2024-02-05T11:27:45.414Z,148827.53
2024-02-05T11:28:52.521Z,148727.12
2024-02-05T11:29:55.454Z,148756.34
2024-02-05T11:31:02.641Z,148756.34
2024-02-05T11:32:05.547Z,148738.58
2024-02-05T11:33:07.782Z,148713.13
2024-02-05T11:34:09.923Z,148718.19
2024-02-05T11:35:12.947Z,148699.17
2024-02-05T11:36:15.382Z,148710.61
2024-02-05T11:37:17.676Z,148769.05
2024-02-05T11:38:21.381Z,148799.58
2024-02-05T11:39:27.774Z,148845.31
2024-02-05T11:40:34.464Z,148873.34
2024-02-05T11:41:39.189Z,148866.97
2024-02-05T11:42:41.131Z,148883.48
2024-02-05T11:43:43.029Z,148912.72
2024-02-05T11:44:48.682Z,148781.75
2024-02-05T11:45:54.894Z,148849.14
2024-02-05T11:46:57.813Z,148883.48
2024-02-05T11:48:08.297Z,148883.48
2024-02-05T11:49:13.275Z,148877.11
2024-02-05T11:50:18.513Z,148898.75
2024-02-05T11:51:34.503Z,148884.75
2024-02-05T11:52:36.992Z,148840.25
2024-02-05T11:53:43.101Z,148916.53
2024-02-05T11:54:45.323Z,148908.91
2024-02-05T11:55:48.388Z,148916.53
2024-02-05T11:56:50.650Z,148859.33
2024-02-05T11:57:52.744Z,148824.98
2024-02-05T11:59:00.551Z,148856.77
2024-02-05T12:00:07.282Z,148893.69
2024-02-05T12:01:12.031Z,148915.28
2024-02-05T12:02:15.583Z,148854.25
2024-02-05T12:03:20.811Z,148917.84
2024-02-05T12:04:26.076Z,148894.94
2024-02-05T12:05:29.377Z,148919.09
2024-02-05T12:06:32.213Z,148866.97
2024-02-05T12:07:36.997Z,148900.00
2024-02-05T12:08:41.144Z,148837.73